createdAt,value
2022-09-05T00:00:21.148Z,68.30
2022-09-05T00:03:12.220Z,68.32
2022-09-05T00:06:02.960Z,68.45
2022-09-05T00:08:42.954Z,68.45
2022-09-05T00:11:40.485Z,68.26
2022-09-05T00:15:14.488Z,68.06
2022-09-05T00:17:57.238Z,68.06
2022-09-05T00:24:22.000Z,67.82
2022-09-05T00:24:29.055Z,67.34
2022-09-05T00:26:33.595Z,67.93
2022-09-05T00:29:50.505Z,67.95
2022-09-05T00:32:45.770Z,68.15
2022-09-05T00:35:26.181Z,67.72
2022-09-05T00:37:54.144Z,68.31
2022-09-05T00:40:41.509Z,68.17
2022-09-05T00:43:14.523Z,68.38
2022-09-05T00:45:51.622Z,68.31
2022-09-05T00:48:42.668Z,68.24
2022-09-05T00:51:21.783Z,68.71
2022-09-05T00:54:02.116Z,68.05
2022-09-05T00:56:45.256Z,68.93
2022-09-05T00:59:39.849Z,69.16
2022-09-05T01:02:21.517Z,68.68
2022-09-05T01:05:25.461Z,68.52
2022-09-05T01:08:24.504Z,69.00
2022-09-05T01:10:57.908Z,69.33
2022-09-05T01:14:01.762Z,68.50
2022-09-05T01:17:01.315Z,68.42
2022-09-05T01:20:18.849Z,68.79
2022-09-05T01:22:52.396Z,68.74
2022-09-05T01:25:44.124Z,68.45
2022-09-05T01:29:16.446Z,68.29
2022-09-05T01:31:32.622Z,68.00
2022-09-05T01:34:05.243Z,68.41
2022-09-05T01:36:53.491Z,69.15
2022-09-05T01:40:11.130Z,68.38
2022-09-05T01:42:39.057Z,68.47
2022-09-05T01:45:42.681Z,68.88
2022-09-05T01:48:47.769Z,70.06
2022-09-05T01:51:37.857Z,69.64
2022-09-05T01:54:46.881Z,69.30
2022-09-05T01:57:51.995Z,69.20
2022-09-05T02:00:37.060Z,69.58
2022-09-05T02:03:15.660Z,69.96
2022-09-05T02:06:39.121Z,70.38
2022-09-05T02:09:29.888Z,70.72
2022-09-05T02:12:03.951Z,69.99
2022-09-05T02:14:54.409Z,70.25
2022-09-05T02:17:49.512Z,69.85
2022-09-05T02:20:34.453Z,70.24
2022-09-05T02:23:37.593Z,70.11
2022-09-05T02:26:27.580Z,70.95
2022-09-05T02:29:11.345Z,70.29
2022-09-05T02:31:48.149Z,71.00
2022-09-05T02:34:54.509Z,71.64
2022-09-05T02:38:18.376Z,71.66
2022-09-05T02:45:14.819Z,72.26
2022-09-05T02:45:17.571Z,71.41
2022-09-05T02:47:06.844Z,72.84
2022-09-05T02:51:30.854Z,72.80
2022-09-05T02:57:33.095Z,71.55
2022-09-05T02:57:37.226Z,72.54
2022-09-05T02:59:11.685Z,72.39
2022-09-05T03:01:58.606Z,72.50
2022-09-05T03:04:44.696Z,73.10
2022-09-05T03:07:43.179Z,73.09
2022-09-05T03:10:16.684Z,73.54
2022-09-05T03:13:20.770Z,72.35
2022-09-05T03:16:05.912Z,73.05
2022-09-05T03:19:00.275Z,73.50
2022-09-05T03:21:38.850Z,73.40
2022-09-05T03:24:30.124Z,73.36
2022-09-05T03:27:47.388Z,74.32
2022-09-05T03:30:26.150Z,75.41
2022-09-05T03:33:23.990Z,75.89
2022-09-05T03:36:08.195Z,75.21
2022-09-05T03:39:07.892Z,74.38
2022-09-05T03:41:59.937Z,74.83
2022-09-05T03:44:40.025Z,75.53
2022-09-05T03:47:18.846Z,75.91
2022-09-05T03:53:16.404Z,76.23
2022-09-05T03:57:15.203Z,76.90
2022-09-05T03:57:20.725Z,76.66
2022-09-05T03:59:26.803Z,77.94
2022-09-05T04:03:01.248Z,76.43
2022-09-05T04:08:15.799Z,77.56
2022-09-05T04:08:30.795Z,76.87
2022-09-05T04:11:13.957Z,76.98
2022-09-05T04:13:52.006Z,77.25
2022-09-05T04:16:31.957Z,77.29
2022-09-05T04:19:24.121Z,78.41
2022-09-05T04:22:16.338Z,78.57
2022-09-05T04:24:58.096Z,79.20
2022-09-05T04:28:06.803Z,78.13
2022-09-05T04:30:48.323Z,78.51
2022-09-05T04:33:37.846Z,79.31
2022-09-05T04:36:19.316Z,80.59
2022-09-05T04:39:05.454Z,80.02
2022-09-05T04:41:40.105Z,79.53
2022-09-05T04:44:14.911Z,80.08
2022-09-05T04:46:55.607Z,79.38
2022-09-05T04:49:28.765Z,78.98
2022-09-05T04:52:02.783Z,78.79
2022-09-05T04:55:03.270Z,79.44
2022-09-05T04:58:07.363Z,78.70
2022-09-05T05:06:04.391Z,79.13
2022-09-05T05:06:11.748Z,77.22
2022-09-05T05:06:48.000Z,77.67
2022-09-05T05:09:22.925Z,77.12
2022-09-05T05:17:59.475Z,76.58
2022-09-05T05:18:11.816Z,75.67
2022-09-05T05:18:15.778Z,76.33
2022-09-05T05:20:42.107Z,74.56
2022-09-05T05:23:43.489Z,74.83
2022-09-05T05:26:19.432Z,74.96
2022-09-05T05:29:01.662Z,74.16
2022-09-05T05:31:32.911Z,73.63
2022-09-05T05:34:03.946Z,75.15
2022-09-05T05:36:52.193Z,75.30
2022-09-05T05:39:26.293Z,73.64
2022-09-05T05:41:55.125Z,75.36
2022-09-05T05:44:30.731Z,73.02
2022-09-05T05:47:10.096Z,74.38
2022-09-05T05:49:57.439Z,74.10
2022-09-05T05:52:27.023Z,74.09
2022-09-05T05:55:09.677Z,72.82
2022-09-05T05:58:05.872Z,73.33
2022-09-05T06:01:36.907Z,73.35
2022-09-05T06:04:45.596Z,72.52
2022-09-05T06:07:43.700Z,72.80
2022-09-05T06:14:52.657Z,69.23
2022-09-05T06:14:57.884Z,69.02
2022-09-05T06:16:58.830Z,69.52
2022-09-05T06:20:06.920Z,67.87
2022-09-05T06:22:47.636Z,68.49
2022-09-05T06:25:28.949Z,67.80
2022-09-05T06:28:19.247Z,66.45
2022-09-05T06:31:29.978Z,67.91
2022-09-05T06:34:36.103Z,66.16
2022-09-05T06:37:14.204Z,65.56
2022-09-05T06:40:08.306Z,65.47
2022-09-05T06:42:53.481Z,65.73
2022-09-05T06:45:41.027Z,66.47
2022-09-05T06:48:41.221Z,65.59
2022-09-05T06:51:48.550Z,63.57
2022-09-05T06:55:03.637Z,63.27
2022-09-05T06:57:30.824Z,65.21
2022-09-05T07:00:00.466Z,65.28
2022-09-05T07:02:58.424Z,64.20
2022-09-05T07:05:44.643Z,63.26
2022-09-05T07:08:36.043Z,64.73
2022-09-05T07:11:18.168Z,64.89
2022-09-05T07:13:59.730Z,63.77
2022-09-05T07:16:47.101Z,63.41
2022-09-05T07:19:27.698Z,64.07
2022-09-05T07:22:47.707Z,64.60
2022-09-05T07:25:26.370Z,63.18
2022-09-05T07:28:28.422Z,62.26
2022-09-05T07:31:37.835Z,62.19
2022-09-05T07:34:20.644Z,61.77
2022-09-05T07:37:13.868Z,61.08
2022-09-05T07:40:24.970Z,60.99
2022-09-05T07:43:09.732Z,59.45
2022-09-05T07:45:55.306Z,60.07
2022-09-05T07:48:35.166Z,60.60
2022-09-05T07:55:56.179Z,60.24
2022-09-05T07:57:00.800Z,60.30
2022-09-05T07:59:55.200Z,59.42
2022-09-05T08:02:21.948Z,59.38
2022-09-05T08:04:48.722Z,58.84
2022-09-05T08:07:48.971Z,59.25
2022-09-05T08:10:18.434Z,58.41
2022-09-05T08:13:23.745Z,56.72
2022-09-05T08:16:11.015Z,59.14
2022-09-05T08:18:50.243Z,56.62
2022-09-05T08:21:33.268Z,57.58
2022-09-05T08:24:25.455Z,57.49
2022-09-05T08:27:13.794Z,57.93
2022-09-05T08:30:26.304Z,57.76
2022-09-05T08:33:11.358Z,55.63
2022-09-05T08:35:57.720Z,54.83
2022-09-05T08:38:38.741Z,56.94
2022-09-05T08:41:14.186Z,54.31
2022-09-05T08:46:35.689Z,54.45
2022-09-05T08:47:01.184Z,54.52
2022-09-05T08:49:52.237Z,52.83
2022-09-05T08:52:45.172Z,52.62
2022-09-05T08:55:36.084Z,53.45
2022-09-05T08:58:33.068Z,53.45
2022-09-05T09:01:15.279Z,53.62
2022-09-05T09:04:04.577Z,52.36
2022-09-05T09:07:48.224Z,52.63
2022-09-05T09:10:06.373Z,51.83
2022-09-05T09:12:42.285Z,51.24
2022-09-05T09:15:31.361Z,51.92
2022-09-05T09:17:59.358Z,51.98
2022-09-05T09:20:57.333Z,50.94
2022-09-05T09:23:40.138Z,51.14
2022-09-05T09:26:19.232Z,51.56
2022-09-05T09:29:04.164Z,51.55
2022-09-05T09:31:42.986Z,50.60
2022-09-05T09:34:36.735Z,49.56
2022-09-05T09:37:11.327Z,49.31
2022-09-05T09:39:44.150Z,49.54
2022-09-05T09:42:53.968Z,49.98
2022-09-05T09:45:29.794Z,49.27
2022-09-05T09:47:56.417Z,49.47
2022-09-05T09:50:28.840Z,50.01
2022-09-05T09:53:13.408Z,49.25
2022-09-05T09:55:47.177Z,49.49
2022-09-05T09:58:37.489Z,47.99
2022-09-05T10:01:34.980Z,48.53
2022-09-05T10:10:38.836Z,48.30
2022-09-05T10:10:48.841Z,47.20
2022-09-05T10:10:54.670Z,49.44
2022-09-05T10:13:25.599Z,49.10
2022-09-05T10:16:31.607Z,47.03
2022-09-05T10:19:16.921Z,47.69
2022-09-05T10:24:51.099Z,48.43
2022-09-05T10:27:30.136Z,46.55
2022-09-05T10:30:06.378Z,46.53
2022-09-05T10:35:09.162Z,47.43
2022-09-05T10:36:24.793Z,47.47
2022-09-05T10:39:32.388Z,44.91
2022-09-05T10:42:04.498Z,45.56
2022-09-05T10:44:41.230Z,45.10
2022-09-05T10:47:10.949Z,44.96
2022-09-05T10:49:44.554Z,45.12
2022-09-05T10:52:18.708Z,45.72
2022-09-05T10:55:15.113Z,45.59
2022-09-05T10:57:47.826Z,44.91
2022-09-05T11:02:19.266Z,43.19
2022-09-05T11:03:48.261Z,44.71
2022-09-05T11:06:25.111Z,44.97
2022-09-05T11:09:13.243Z,44.69
2022-09-05T11:11:46.833Z,44.71
2022-09-05T11:14:30.694Z,45.02
2022-09-05T11:17:12.935Z,45.33
2022-09-05T11:19:47.523Z,45.52
2022-09-05T11:22:23.493Z,45.83
2022-09-05T11:24:55.808Z,45.83
2022-09-05T11:27:43.670Z,44.35
2022-09-05T11:30:30.269Z,45.43
2022-09-05T11:35:17.094Z,44.33
2022-09-05T11:40:09.969Z,43.87
2022-09-05T11:40:29.053Z,44.42
2022-09-05T11:42:44.599Z,45.27
2022-09-05T11:45:21.399Z,45.26
2022-09-05T11:48:31.067Z,45.21
2022-09-05T11:51:49.166Z,46.74
2022-09-05T11:54:34.397Z,45.26
2022-09-05T11:57:33.423Z,45.39
2022-09-05T12:00:33.058Z,46.01
2022-09-05T12:03:58.776Z,45.68
2022-09-05T12:06:48.010Z,45.11
2022-09-05T12:09:31.888Z,45.14
2022-09-05T12:12:04.537Z,46.20
2022-09-05T12:15:26.921Z,46.18
2022-09-05T12:21:15.502Z,45.43
2022-09-05T12:24:24.757Z,45.91
2022-09-05T12:27:39.807Z,44.81
2022-09-05T12:29:48.590Z,45.18
2022-09-05T12:33:32.694Z,45.22
2022-09-05T12:36:07.239Z,46.30
2022-09-05T12:40:45.151Z,44.65
2022-09-05T12:41:40.656Z,44.52
2022-09-05T12:41:41.300Z,46.36
2022-09-05T12:44:41.690Z,44.97
2022-09-05T12:47:17.009Z,45.46
2022-09-05T12:50:15.345Z,45.37
2022-09-05T12:52:59.813Z,45.38
2022-09-05T12:55:33.566Z,47.85
2022-09-05T13:02:09.279Z,46.66
2022-09-05T13:03:14.679Z,45.00
2022-09-05T13:04:23.931Z,44.90
2022-09-05T13:06:59.105Z,44.92
2022-09-05T13:09:55.361Z,44.43
2022-09-05T13:14:58.634Z,44.63
2022-09-05T13:15:23.604Z,43.54
2022-09-05T13:18:08.589Z,43.43
2022-09-05T13:20:39.465Z,44.66
2022-09-05T13:23:20.037Z,43.75
2022-09-05T13:26:01.629Z,44.19
2022-09-05T13:28:41.520Z,44.56
2022-09-05T13:35:31.674Z,45.78
2022-09-05T13:38:07.907Z,43.32
2022-09-05T13:38:10.025Z,45.01
2022-09-05T13:39:57.472Z,43.18
2022-09-05T13:42:30.712Z,43.20
2022-09-05T13:45:00.856Z,43.82
2022-09-05T13:47:51.077Z,44.82
2022-09-05T13:50:23.231Z,43.99
2022-09-05T13:52:55.449Z,44.05
2022-09-05T13:55:38.923Z,44.86
2022-09-05T13:58:11.741Z,45.68
2022-09-05T14:00:38.680Z,46.93
2022-09-05T14:03:50.798Z,45.82
2022-09-05T14:06:47.783Z,45.28
2022-09-05T14:12:37.232Z,45.06
2022-09-05T14:15:41.633Z,44.48
2022-09-05T14:18:58.802Z,44.50
2022-09-05T14:21:29.976Z,44.11
2022-09-05T14:24:13.320Z,45.59
2022-09-05T14:26:47.818Z,45.71
2022-09-05T14:29:18.417Z,45.07
2022-09-05T14:37:34.342Z,44.40
2022-09-05T14:38:01.238Z,44.81
2022-09-05T14:38:07.883Z,45.67
2022-09-05T14:40:58.932Z,45.29
2022-09-05T14:43:32.262Z,45.90
2022-09-05T14:46:08.447Z,45.44
2022-09-05T14:48:44.129Z,45.73
2022-09-05T14:51:25.720Z,45.93
2022-09-05T14:54:04.161Z,45.83
2022-09-05T14:58:19.597Z,45.25
2022-09-05T15:02:50.437Z,45.13
2022-09-05T15:03:00.402Z,44.84
2022-09-05T15:05:29.474Z,45.57
2022-09-05T15:08:26.974Z,45.62
2022-09-05T15:12:17.099Z,45.86
2022-09-05T15:13:58.767Z,46.93
2022-09-05T15:16:25.929Z,46.84
2022-09-05T15:18:53.412Z,46.36
2022-09-05T15:21:36.572Z,47.55
2022-09-05T15:24:12.897Z,47.79
2022-09-05T15:26:51.953Z,46.59
2022-09-05T15:29:23.822Z,47.56
2022-09-05T15:31:53.262Z,47.67
2022-09-05T15:34:38.335Z,47.45
2022-09-05T15:37:22.466Z,47.85
2022-09-05T15:40:21.949Z,49.05
2022-09-05T15:43:02.460Z,48.37
2022-09-05T15:45:35.441Z,48.95
2022-09-05T15:48:09.437Z,50.13
2022-09-05T15:50:51.326Z,49.07
2022-09-05T15:53:29.257Z,49.94
2022-09-05T15:56:17.010Z,48.13
2022-09-05T15:58:52.336Z,49.70
2022-09-05T16:01:30.545Z,50.76
2022-09-05T16:09:04.703Z,50.06
2022-09-05T16:10:38.651Z,49.97
2022-09-05T16:10:39.493Z,49.30
2022-09-05T16:12:49.442Z,48.86
2022-09-05T16:18:10.385Z,49.83
2022-09-05T16:23:14.635Z,49.23
2022-09-05T16:23:32.266Z,48.53
2022-09-05T16:24:05.691Z,49.46
2022-09-05T16:26:47.293Z,50.85
2022-09-05T16:29:26.139Z,51.88
2022-09-05T16:31:59.512Z,52.46
2022-09-05T16:34:45.081Z,50.73
2022-09-05T16:37:21.200Z,51.17
2022-09-05T16:39:54.243Z,50.96
2022-09-05T16:42:46.802Z,51.11
2022-09-05T16:45:38.242Z,50.86
2022-09-05T16:48:09.263Z,52.35
2022-09-05T16:50:50.144Z,52.54
2022-09-05T16:53:57.988Z,51.99
2022-09-05T16:56:33.889Z,51.83
2022-09-05T16:59:17.347Z,52.00
2022-09-05T17:02:06.031Z,51.14
2022-09-05T17:04:42.703Z,51.67
2022-09-05T17:07:42.237Z,52.60
2022-09-05T17:10:20.149Z,52.92
2022-09-05T17:12:52.008Z,53.97
2022-09-05T17:15:36.255Z,54.50
2022-09-05T17:18:24.987Z,53.97
2022-09-05T17:20:57.352Z,53.66
2022-09-05T17:29:19.272Z,54.67
2022-09-05T17:29:29.472Z,54.84
2022-09-05T17:31:10.923Z,55.25
2022-09-05T17:32:38.874Z,55.93
2022-09-05T17:36:03.231Z,55.11
2022-09-05T17:39:03.574Z,56.73
2022-09-05T17:41:51.424Z,55.74
2022-09-05T17:44:39.117Z,55.91
2022-09-05T17:47:20.764Z,56.40
2022-09-05T17:50:10.407Z,56.00
2022-09-05T17:53:24.988Z,56.52
2022-09-05T17:55:51.870Z,55.67
2022-09-05T17:58:49.275Z,55.51
2022-09-05T18:01:27.156Z,56.02
2022-09-05T18:04:16.053Z,56.62
2022-09-05T18:06:59.868Z,57.46
2022-09-05T18:09:40.026Z,57.98
2022-09-05T18:13:14.143Z,59.35
2022-09-05T18:15:17.634Z,59.42
2022-09-05T18:17:47.651Z,59.54
2022-09-05T18:20:39.646Z,60.46
2022-09-05T18:26:17.880Z,60.92
2022-09-05T18:28:50.387Z,60.67
2022-09-05T18:31:41.839Z,61.21
2022-09-05T18:34:21.152Z,61.66
2022-09-05T18:36:50.438Z,60.99
2022-09-05T18:39:37.478Z,60.51
2022-09-05T18:42:25.540Z,59.80
2022-09-05T18:45:02.224Z,59.51
2022-09-05T18:47:51.082Z,58.75
2022-09-05T18:50:32.480Z,59.67
2022-09-05T18:53:09.866Z,60.37
2022-09-05T18:56:13.923Z,60.37
2022-09-05T18:59:09.382Z,59.21
2022-09-05T19:01:52.262Z,60.19
2022-09-05T19:04:39.710Z,59.79
2022-09-05T19:07:16.681Z,60.20
2022-09-05T19:10:34.726Z,60.62
2022-09-05T19:13:15.689Z,60.81
2022-09-05T19:16:34.833Z,60.67
2022-09-05T19:19:16.340Z,61.65
2022-09-05T19:22:54.525Z,60.01
2022-09-05T19:24:47.627Z,60.74
2022-09-05T19:28:09.694Z,60.34
2022-09-05T19:36:51.930Z,59.75
2022-09-05T19:37:13.410Z,59.77
2022-09-05T19:37:15.102Z,60.07
2022-09-05T19:38:53.452Z,60.70
2022-09-05T19:47:26.966Z,60.21
2022-09-05T19:47:33.998Z,59.59
2022-09-05T19:47:45.140Z,59.19
2022-09-05T19:49:58.103Z,58.52
2022-09-05T19:52:24.853Z,58.91
2022-09-05T19:54:54.883Z,58.67
2022-09-05T19:57:21.736Z,59.13
2022-09-05T19:59:54.664Z,59.13
2022-09-05T20:02:31.400Z,57.58
2022-09-05T20:05:01.008Z,58.56
2022-09-05T20:07:30.258Z,58.67
2022-09-05T20:09:58.907Z,58.28
2022-09-05T20:12:31.741Z,58.71
2022-09-05T20:15:20.864Z,58.40
2022-09-05T20:17:47.896Z,58.81
2022-09-05T20:20:14.501Z,58.95
2022-09-05T20:22:58.476Z,58.92
2022-09-05T20:25:43.709Z,58.76
2022-09-05T20:28:19.813Z,58.40
2022-09-05T20:30:50.643Z,59.47
2022-09-05T20:33:39.545Z,58.71
2022-09-05T20:43:12.495Z,58.74
2022-09-05T20:43:23.648Z,59.48
2022-09-05T20:43:27.433Z,58.10
2022-09-05T20:44:57.652Z,57.68
2022-09-05T20:54:13.918Z,58.60
2022-09-05T20:54:19.915Z,58.48
2022-09-05T20:54:23.435Z,57.21
2022-09-05T20:56:23.152Z,57.28
2022-09-05T20:58:51.520Z,57.95
2022-09-05T21:01:23.558Z,57.95
2022-09-05T21:03:55.168Z,56.74
2022-09-05T21:06:26.655Z,56.66
2022-09-05T21:09:07.088Z,57.51
2022-09-05T21:11:34.152Z,58.02
2022-09-05T21:14:05.153Z,58.68
2022-09-05T21:16:44.580Z,58.30
2022-09-05T21:19:31.465Z,57.38
2022-09-05T21:22:29.685Z,58.14
2022-09-05T21:25:36.031Z,57.70
2022-09-05T21:28:24.362Z,58.46
2022-09-05T21:31:13.641Z,58.33
2022-09-05T21:33:45.816Z,58.98
2022-09-05T21:36:15.326Z,59.55
2022-09-05T21:38:43.353Z,59.51
2022-09-05T21:41:10.727Z,58.83
2022-09-05T21:47:34.727Z,59.10
2022-09-05T21:47:48.740Z,59.03
2022-09-05T21:49:18.636Z,58.49
2022-09-05T21:51:53.256Z,58.92
2022-09-05T21:59:13.547Z,58.91
2022-09-05T21:59:27.557Z,59.58
2022-09-05T22:00:10.827Z,58.77
2022-09-05T22:02:38.212Z,59.42
2022-09-05T22:05:05.259Z,58.48
2022-09-05T22:07:35.782Z,58.25
2022-09-05T22:10:04.805Z,58.34
2022-09-05T22:12:35.904Z,58.78
2022-09-05T22:15:05.987Z,58.83
2022-09-05T22:17:54.352Z,58.68
2022-09-05T22:20:26.833Z,58.84
2022-09-05T22:22:56.756Z,59.23
2022-09-05T22:25:27.777Z,58.27
2022-09-05T22:28:06.423Z,58.83
2022-09-05T22:30:36.275Z,58.33
2022-09-05T22:33:05.522Z,57.83
2022-09-05T22:35:34.505Z,58.59
2022-09-05T22:38:05.047Z,58.36
2022-09-05T22:40:36.128Z,59.20
2022-09-05T22:43:05.700Z,58.42
2022-09-05T22:45:34.401Z,58.67
2022-09-05T22:48:08.129Z,58.45
2022-09-05T22:50:34.771Z,58.14
2022-09-05T22:53:06.629Z,57.73
2022-09-05T22:55:37.661Z,57.95
2022-09-05T22:58:05.791Z,56.89
2022-09-05T23:00:34.586Z,56.88
2022-09-05T23:03:03.985Z,57.46
2022-09-05T23:05:31.603Z,58.14
2022-09-05T23:08:02.713Z,56.98
2022-09-05T23:10:30.453Z,57.37
2022-09-05T23:12:57.459Z,57.12
2022-09-05T23:15:25.020Z,56.72
2022-09-05T23:17:56.816Z,57.04
2022-09-05T23:20:24.695Z,56.36
2022-09-05T23:22:51.622Z,55.96
2022-09-05T23:25:18.533Z,55.90
2022-09-05T23:27:45.576Z,54.74
2022-09-05T23:30:12.589Z,55.29
2022-09-05T23:32:46.984Z,55.94
2022-09-05T23:35:14.764Z,55.35
2022-09-05T23:37:43.780Z,54.24
2022-09-05T23:40:18.288Z,54.68
2022-09-05T23:42:55.865Z,54.51
2022-09-05T23:45:24.626Z,55.16
2022-09-05T23:47:51.703Z,53.38
2022-09-05T23:50:19.747Z,54.03
2022-09-05T23:52:47.126Z,54.42
2022-09-05T23:55:17.900Z,54.44
2022-09-05T23:57:45.486Z,53.53
